Time;durP1;ratioP1;P1;durP2;ratioP2;P2;SDS_P1;SDS_P2;PMS_P1;PMS_P2;Temp;Humidity;BMP_temperature;BMP_pressure;BME280_temperature;BME280_humidity;BME280_pressure;Samples;Min_cycle;Max_cycle;Signal;HPM_P1;HPM_P2
2022/05/03 00:00:38;;;;;;;19.57;17.57;;;8.70;65.70;;;;;;4972910;29;20467;-83
2022/05/03 00:03:14;;;;;;;25.47;21.17;;;8.60;67.00;;;;;;4973003;29;20472;-83
2022/05/03 00:05:50;;;;;;;26.20;23.83;;;8.50;68.00;;;;;;4972692;29;20447;-83
2022/05/03 00:08:24;;;;;;;25.73;23.33;;;8.50;69.40;;;;;;4972710;29;20524;-82
2022/05/03 00:11:06;;;;;;;26.27;23.77;;;8.50;71.60;;;;;;4973292;29;20483;-83
2022/05/03 00:13:43;;;;;;;28.90;26.20;;;8.40;71.90;;;;;;4974249;29;20447;-83
2022/05/03 00:16:13;;;;;;;29.47;26.67;;;8.40;72.90;;;;;;4973697;29;20456;-83
2022/05/03 00:18:42;;;;;;;40.50;37.60;;;8.40;73.90;;;;;;4972559;29;20455;-83
2022/05/03 00:21:11;;;;;;;32.37;30.00;;;8.40;75.50;;;;;;4972637;29;20480;-83
2022/05/03 00:23:38;;;;;;;34.00;31.20;;;8.40;76.60;;;;;;4972290;28;20515;-82
2022/05/03 00:26:06;;;;;;;38.13;34.80;;;8.30;76.50;;;;;;4972769;29;20476;-83
2022/05/03 00:28:33;;;;;;;37.60;34.70;;;8.30;76.50;;;;;;4972496;29;20516;-83
2022/05/03 00:31:02;;;;;;;41.73;38.50;;;8.30;76.50;;;;;;4972542;29;20471;-83
2022/05/03 00:33:32;;;;;;;43.07;40.23;;;8.30;76.90;;;;;;4973173;29;20459;-83
2022/05/03 00:36:00;;;;;;;46.77;43.67;;;8.20;77.30;;;;;;4972321;29;20822;-83
2022/05/03 00:38:27;;;;;;;43.83;40.37;;;8.30;78.80;;;;;;4972113;29;20479;-82
2022/05/03 00:40:59;;;;;;;50.83;47.33;;;8.20;80.00;;;;;;4972933;29;20551;-83
2022/05/03 00:43:35;;;;;;;44.17;40.57;;;8.20;80.50;;;;;;4972192;29;20511;-83
2022/05/03 00:46:06;;;;;;;61.77;58.30;;;8.00;80.70;;;;;;4972593;29;20462;-83
2022/05/03 00:49:07;;;;;;;53.17;49.83;;;8.00;82.60;;;;;;4972691;29;20440;-82
2022/05/03 00:51:45;;;;;;;77.77;73.03;;;8.00;83.10;;;;;;4973006;28;20509;-83
2022/05/03 00:54:19;;;;;;;58.23;54.97;;;8.10;83.40;;;;;;4972768;29;20536;-83
2022/05/03 00:57:01;;;;;;;51.13;47.37;;;8.20;82.80;;;;;;4972593;29;20507;-83
2022/05/03 00:59:41;;;;;;;57.03;53.43;;;8.00;83.00;;;;;;4971212;29;20496;-83
2022/05/03 01:02:09;;;;;;;40.60;36.90;;;8.00;84.50;;;;;;4974384;28;20474;-83
2022/05/03 01:04:47;;;;;;;42.23;38.70;;;8.00;84.80;;;;;;4976293;29;20452;-83
2022/05/03 01:07:24;;;;;;;60.13;56.43;;;8.00;83.90;;;;;;4976114;29;20647;-83
2022/05/03 01:10:02;;;;;;;47.93;44.33;;;8.00;84.10;;;;;;4975486;29;20554;-83
2022/05/03 01:12:48;;;;;;;33.87;30.90;;;8.00;83.40;;;;;;4975457;29;20480;-83
2022/05/03 01:15:20;;;;;;;38.43;35.77;;;8.20;82.10;;;;;;4976016;29;20464;-83
2022/05/03 01:17:52;;;;;;;39.90;37.07;;;8.00;83.50;;;;;;4976417;29;20467;-83
2022/05/03 01:20:30;;;;;;;46.80;44.00;;;7.90;84.70;;;;;;4975705;29;20464;-83
2022/05/03 01:23:23;;;;;;;32.90;30.00;;;7.70;87.20;;;;;;4976266;29;20452;-83
2022/05/03 01:26:11;;;;;;;41.43;38.40;;;7.80;86.80;;;;;;4976172;29;20483;-83
2022/05/03 01:29:02;;;;;;;45.77;42.73;;;7.80;86.50;;;;;;4975309;29;20836;-83
2022/05/03 01:31:30;;;;;;;30.27;28.07;;;7.70;88.20;;;;;;4975607;29;20544;-83
2022/05/03 01:34:01;;;;;;;44.70;41.33;;;7.70;87.20;;;;;;4975590;29;20451;-82
2022/05/03 01:36:40;;;;;;;61.57;57.77;;;7.70;87.20;;;;;;4975253;29;20460;-83
2022/05/03 01:39:16;;;;;;;62.03;58.63;;;7.70;87.10;;;;;;4974770;29;20478;-83
2022/05/03 01:41:49;;;;;;;105.17;100.10;;;7.50;88.40;;;;;;4975495;29;20537;-83
2022/05/03 01:44:28;;;;;;;117.87;112.57;;;7.40;90.40;;;;;;4975735;29;20451;-82
2022/05/03 01:47:00;;;;;;;169.57;162.63;;;7.20;91.90;;;;;;4975401;29;20515;-83
2022/05/03 01:52:50;;;;;;;164.57;157.17;;;7.00;95.40;;;;;;4974910;29;20486;-83
2022/05/03 01:55:30;;;;;;;236.60;227.57;;;7.00;96.90;;;;;;4974861;29;20475;-83
2022/05/03 01:58:10;;;;;;;255.87;246.57;;;7.00;96.90;;;;;;4974923;29;20462;-83
2022/05/03 02:00:40;;;;;;;243.73;234.23;;;7.00;98.20;;;;;;4975100;29;20479;-82
2022/05/03 02:03:25;;;;;;;203.93;196.17;;;7.20;97.80;;;;;;4974683;29;20515;-83
2022/05/03 02:05:59;;;;;;;225.53;216.97;;;7.20;97.70;;;;;;4978880;28;20515;-83
2022/05/03 02:08:35;;;;;;;195.33;187.77;;;7.20;97.40;;;;;;4981540;28;20479;-83
2022/05/03 02:11:36;;;;;;;165.00;158.57;;;7.20;97.00;;;;;;4981859;28;20471;-83
2022/05/03 02:17:06;;;;;;;92.40;87.97;;;7.40;95.90;;;;;;4976241;28;20463;-83
2022/05/03 02:20:05;;;;;;;146.20;139.80;;;7.40;95.30;;;;;;4974239;29;20522;-83
2022/05/03 02:23:04;;;;;;;163.27;156.83;;;7.30;95.60;;;;;;4975071;29;20448;-83
2022/05/03 02:25:42;;;;;;;141.03;135.30;;;7.30;95.70;;;;;;4974237;29;20455;-83
2022/05/03 02:28:19;;;;;;;171.70;164.90;;;7.40;95.90;;;;;;4974837;29;20475;-81
2022/05/03 02:30:47;;;;;;;201.70;193.90;;;7.20;96.30;;;;;;4976716;29;20468;-83
2022/05/03 02:33:21;;;;;;;217.20;209.13;;;7.20;96.50;;;;;;4974356;29;20451;-82
2022/05/03 02:35:52;;;;;;;168.87;162.40;;;7.10;96.90;;;;;;4974220;28;20459;-83
2022/05/03 02:38:25;;;;;;;207.50;199.47;;;7.10;96.90;;;;;;4973969;29;20448;-83
2022/05/03 02:40:53;;;;;;;220.67;212.77;;;7.10;96.90;;;;;;4974535;29;20472;-83
2022/05/03 02:43:25;;;;;;;225.47;216.67;;;7.00;96.90;;;;;;4974613;29;20453;-83
2022/05/03 02:46:00;;;;;;;280.70;270.30;;;7.00;97.80;;;;;;4974389;29;20511;-83
2022/05/03 02:48:39;;;;;;;243.43;234.73;;;6.90;98.10;;;;;;4973641;29;20467;-82
2022/05/03 02:51:08;;;;;;;253.93;244.67;;;6.90;98.90;;;;;;4973476;29;20471;-83
2022/05/03 02:53:43;;;;;;;304.17;293.27;;;6.80;99.50;;;;;;4974127;29;20528;-83
2022/05/03 02:56:20;;;;;;;285.07;274.57;;;6.80;99.90;;;;;;4973585;29;20532;-83
2022/05/03 02:59:00;;;;;;;295.10;284.07;;;6.80;99.80;;;;;;4973512;29;20462;-83
2022/05/03 03:01:47;;;;;;;306.07;294.93;;;6.80;99.90;;;;;;4972232;29;20487;-83
2022/05/03 03:04:29;;;;;;;339.63;326.93;;;6.80;99.90;;;;;;4974794;29;20456;-83
2022/05/03 03:06:56;;;;;;;407.43;391.80;;;6.70;99.90;;;;;;4969024;29;20466;-83
2022/05/03 03:09:30;;;;;;;491.10;470.93;;;6.50;99.90;;;;;;4973826;29;20555;-83
2022/05/03 03:12:02;;;;;;;516.17;495.00;;;6.40;99.90;;;;;;4974259;29;20488;-83
2022/05/03 03:14:35;;;;;;;593.07;566.87;;;6.40;99.90;;;;;;4974649;29;20538;-83
2022/05/03 03:17:06;;;;;;;667.73;635.77;;;6.40;99.90;;;;;;4973944;29;20550;-83
2022/05/03 03:20:03;;;;;;;680.23;647.50;;;6.30;99.90;;;;;;4972614;29;20476;-83
2022/05/03 03:22:35;;;;;;;632.17;603.70;;;6.20;99.90;;;;;;4965582;28;20448;-83
2022/05/03 03:25:04;;;;;;;609.77;582.67;;;6.40;99.90;;;;;;4973156;28;20456;-82
2022/05/03 03:27:32;;;;;;;502.97;481.40;;;6.50;99.90;;;;;;4973543;29;20440;-83
2022/05/03 03:30:01;;;;;;;517.70;497.20;;;6.50;99.90;;;;;;4972762;29;20452;-83
2022/05/03 03:32:28;;;;;;;482.10;462.67;;;6.50;99.90;;;;;;4973275;29;20534;-83
2022/05/03 03:34:56;;;;;;;458.73;440.83;;;6.50;99.90;;;;;;4973491;29;20703;-82
2022/05/03 03:37:27;;;;;;;489.90;471.00;;;6.50;99.90;;;;;;4972994;29;20480;-83
2022/05/03 03:39:55;;;;;;;554.37;530.50;;;6.50;99.90;;;;;;4972413;29;20490;-83
2022/05/03 03:42:21;;;;;;;540.10;516.77;;;6.50;99.90;;;;;;4972861;29;20454;-82
2022/05/03 03:44:49;;;;;;;539.43;516.07;;;6.50;99.90;;;;;;4972707;29;20455;-82
2022/05/03 03:47:16;;;;;;;565.73;541.83;;;6.50;99.90;;;;;;4972960;29;20540;-83
2022/05/03 03:49:43;;;;;;;560.67;536.50;;;6.40;99.90;;;;;;4971584;29;20473;-83
2022/05/03 03:52:11;;;;;;;633.60;603.87;;;6.30;99.90;;;;;;4972484;29;20479;-83
2022/05/03 03:54:41;;;;;;;620.63;592.47;;;6.30;99.90;;;;;;4972949;29;20458;-83
2022/05/03 03:57:08;;;;;;;594.70;568.50;;;6.30;99.90;;;;;;4972721;29;20464;-82
2022/05/03 03:59:38;;;;;;;604.83;578.17;;;6.30;99.90;;;;;;4972177;29;20484;-82
2022/05/03 04:02:05;;;;;;;634.23;604.73;;;6.40;99.90;;;;;;4972645;29;20447;-82
2022/05/03 04:04:34;;;;;;;633.47;604.30;;;6.30;99.90;;;;;;4972320;29;20444;-82
2022/05/03 04:07:02;;;;;;;670.80;638.20;;;6.40;99.90;;;;;;4972374;29;20463;-83
2022/05/03 04:09:29;;;;;;;671.77;640.37;;;6.20;99.90;;;;;;4972035;29;20855;-83
2022/05/03 04:12:00;;;;;;;663.03;632.13;;;6.20;99.90;;;;;;4972480;29;20475;-82
2022/05/03 04:14:27;;;;;;;684.53;651.17;;;6.10;99.90;;;;;;4972150;29;20464;-82
2022/05/03 04:16:54;;;;;;;746.87;709.50;;;6.00;99.90;;;;;;4972996;29;20495;-83
2022/05/03 04:19:22;;;;;;;787.50;745.53;;;6.00;99.90;;;;;;4971935;29;20496;-82
2022/05/03 04:21:49;;;;;;;781.63;739.17;;;6.10;99.90;;;;;;4972236;29;20448;-83
2022/05/03 04:24:16;;;;;;;731.47;694.80;;;6.10;99.90;;;;;;4970728;29;20593;-83
2022/05/03 04:26:43;;;;;;;701.83;667.23;;;6.10;99.90;;;;;;4971407;29;20447;-82
2022/05/03 04:29:11;;;;;;;694.43;659.53;;;6.10;99.90;;;;;;4970827;29;20475;-82
2022/05/03 04:31:38;;;;;;;572.80;549.33;;;6.10;99.90;;;;;;4972138;29;20483;-82
2022/05/03 04:34:06;;;;;;;561.60;537.80;;;6.30;99.90;;;;;;4971086;29;20890;-82
2022/05/03 04:36:35;;;;;;;535.43;512.87;;;6.30;99.90;;;;;;4970774;28;20540;-83
2022/05/03 04:39:02;;;;;;;560.20;536.63;;;6.40;99.90;;;;;;4971333;29;21017;-82
2022/05/03 04:41:30;;;;;;;580.63;554.13;;;6.40;99.90;;;;;;4970628;29;20527;-83
2022/05/03 04:43:57;;;;;;;557.53;530.57;;;6.40;99.90;;;;;;4969651;28;20479;-83
2022/05/03 04:46:25;;;;;;;523.90;500.70;;;6.60;99.90;;;;;;4970203;29;20475;-83
2022/05/03 04:48:52;;;;;;;479.23;458.23;;;6.60;99.90;;;;;;4970499;29;20448;-83
2022/05/03 04:51:20;;;;;;;477.27;456.30;;;6.70;99.90;;;;;;4970369;29;20552;-83
2022/05/03 04:53:47;;;;;;;397.17;380.37;;;6.80;99.90;;;;;;4970278;29;20451;-83
2022/05/03 04:56:19;;;;;;;399.73;382.37;;;6.80;99.90;;;;;;4963915;29;20479;-85
2022/05/03 04:58:48;;;;;;;321.40;308.23;;;6.80;99.90;;;;;;4963127;29;20456;-82
2022/05/03 05:01:15;;;;;;;288.37;276.43;;;7.00;99.90;;;;;;4963642;28;20772;-82
2022/05/03 05:03:46;;;;;;;280.40;268.93;;;7.10;99.90;;;;;;4964209;29;20519;-82
2022/05/03 05:06:14;;;;;;;293.70;281.87;;;7.00;99.90;;;;;;4962863;29;20518;-82
2022/05/03 05:08:41;;;;;;;281.30;270.17;;;7.10;99.90;;;;;;4960102;29;20463;-82
2022/05/03 05:11:08;;;;;;;231.70;222.27;;;7.10;99.90;;;;;;4961008;29;21196;-84
2022/05/03 05:13:37;;;;;;;240.73;231.27;;;7.30;99.90;;;;;;4965956;29;20490;-83
2022/05/03 05:16:04;;;;;;;273.80;263.33;;;7.20;99.90;;;;;;4963151;29;20468;-83
2022/05/03 05:18:30;;;;;;;235.53;226.13;;;7.30;99.90;;;;;;4964214;29;20452;-82
2022/05/03 05:20:59;;;;;;;183.07;175.17;;;7.30;99.90;;;;;;4962968;29;20476;-84
2022/05/03 05:23:25;;;;;;;179.03;171.40;;;7.40;99.90;;;;;;4963959;29;20452;-83
2022/05/03 05:25:54;;;;;;;137.47;131.33;;;7.50;99.90;;;;;;4967072;29;20459;-83
2022/05/03 05:28:23;;;;;;;97.40;92.13;;;7.60;99.90;;;;;;4965723;28;20550;-83
2022/05/03 05:30:51;;;;;;;52.70;49.70;;;7.80;97.90;;;;;;4964963;29;20476;-83
2022/05/03 05:33:18;;;;;;;51.77;47.90;;;8.00;96.30;;;;;;4966403;29;20479;-82
2022/05/03 05:35:45;;;;;;;40.53;37.50;;;8.20;95.50;;;;;;4966241;29;20463;-83
2022/05/03 05:38:15;;;;;;;25.47;22.97;;;8.20;94.10;;;;;;4965246;29;20560;-83
2022/05/03 05:40:41;;;;;;;21.00;16.63;;;8.50;92.30;;;;;;4966757;29;20480;-83
2022/05/03 05:43:11;;;;;;;21.50;15.57;;;8.60;90.10;;;;;;4965226;29;20506;-84
2022/05/03 05:45:38;;;;;;;14.50;12.10;;;8.80;88.30;;;;;;4965539;29;20455;-84
2022/05/03 05:48:05;;;;;;;21.70;13.00;;;8.90;85.60;;;;;;4968970;28;20452;-83
2022/05/03 05:50:32;;;;;;;16.23;10.83;;;9.10;81.10;;;;;;4971997;29;20479;-83
2022/05/03 05:55:45;;;;;;;18.23;12.00;;;9.40;77.40;;;;;;4970254;29;20471;-83
2022/05/03 05:58:12;;;;;;;16.20;10.60;;;9.60;74.80;;;;;;4966223;29;20483;-82
2022/05/03 06:00:39;;;;;;;20.20;12.60;;;9.70;73.30;;;;;;4965170;29;20490;-83
2022/05/03 06:03:06;;;;;;;15.00;12.83;;;9.90;72.90;;;;;;4966053;29;20462;-84
2022/05/03 06:05:32;;;;;;;18.00;10.60;;;10.10;69.60;;;;;;4965194;29;20459;-84
2022/05/03 06:07:59;;;;;;;17.20;11.20;;;10.20;65.20;;;;;;4967089;29;20460;-83
2022/05/03 06:10:26;;;;;;;16.93;12.47;;;10.40;64.30;;;;;;4962814;29;20491;-83
2022/05/03 06:12:54;;;;;;;13.63;9.20;;;10.50;61.40;;;;;;4963531;29;20479;-84
2022/05/03 06:15:21;;;;;;;19.20;10.77;;;10.50;59.90;;;;;;4965244;29;20455;-84
2022/05/03 06:17:48;;;;;;;16.43;11.03;;;10.60;57.60;;;;;;4965815;29;20471;-84
2022/05/03 06:20:15;;;;;;;11.87;8.20;;;10.50;56.50;;;;;;4964244;29;20497;-84
2022/05/03 06:22:42;;;;;;;13.93;9.40;;;10.60;57.60;;;;;;4966452;29;20467;-83
2022/05/03 06:25:10;;;;;;;26.60;9.70;;;10.60;57.30;;;;;;4964729;29;20667;-81
2022/05/03 06:27:36;;;;;;;13.27;10.73;;;10.50;56.70;;;;;;4965132;29;20456;-81
2022/05/03 06:30:06;;;;;;;13.57;9.93;;;10.50;56.10;;;;;;4964250;28;20476;-82
2022/05/03 06:32:33;;;;;;;16.70;9.13;;;10.60;59.30;;;;;;4964217;29;20483;-82
2022/05/03 06:35:00;;;;;;;12.60;8.80;;;10.60;55.60;;;;;;4967346;29;20466;-82
2022/05/03 06:37:27;;;;;;;14.23;9.07;;;10.70;55.10;;;;;;4964666;29;20451;-82
2022/05/03 06:39:53;;;;;;;13.67;8.37;;;10.80;52.80;;;;;;4963871;29;20476;-81
2022/05/03 06:42:20;;;;;;;32.97;10.47;;;10.80;53.30;;;;;;4964341;29;20531;-82
2022/05/03 06:44:47;;;;;;;11.07;8.00;;;10.70;51.90;;;;;;4970454;29;20466;-82
2022/05/03 06:47:15;;;;;;;16.77;9.30;;;10.70;51.80;;;;;;4964465;29;20466;-81
2022/05/03 06:49:43;;;;;;;11.93;8.10;;;10.80;53.20;;;;;;4964303;29;20468;-83
2022/05/03 06:52:10;;;;;;;12.27;9.03;;;10.80;51.70;;;;;;4964145;29;20953;-82
2022/05/03 06:54:36;;;;;;;17.87;9.37;;;10.90;52.30;;;;;;4964616;29;20459;-81
2022/05/03 06:57:04;;;;;;;11.43;7.93;;;11.00;47.80;;;;;;4964951;29;20492;-82
2022/05/03 06:59:30;;;;;;;11.77;7.10;;;11.10;46.20;;;;;;4965609;28;20476;-82
2022/05/03 07:01:57;;;;;;;13.07;9.57;;;11.10;43.60;;;;;;4965079;29;20455;-81
2022/05/03 07:04:26;;;;;;;16.90;9.60;;;11.20;45.00;;;;;;4963335;29;20483;-82
2022/05/03 07:06:52;;;;;;;12.23;7.37;;;11.40;42.90;;;;;;4964892;29;20456;-81
2022/05/03 07:09:19;;;;;;;12.50;7.93;;;11.40;42.60;;;;;;4964479;29;20483;-81
2022/05/03 07:11:46;;;;;;;16.80;9.90;;;11.60;42.50;;;;;;4964641;29;20452;-83
2022/05/03 07:14:15;;;;;;;16.37;6.90;;;11.70;41.90;;;;;;4944089;29;20500;-82
2022/05/03 07:16:42;;;;;;;15.50;9.00;;;11.90;42.40;;;;;;4944403;29;20456;-82
2022/05/03 07:24:41;;;;;;;9.00;5.87;;;12.20;31.50;;;;;;4943330;29;20488;-84
2022/05/03 07:27:07;;;;;;;14.27;6.63;;;12.40;31.90;;;;;;4940838;29;20456;-84
2022/05/03 07:29:35;;;;;;;11.43;6.30;;;12.40;34.20;;;;;;4947261;29;20483;-82
2022/05/03 07:32:01;;;;;;;11.20;7.00;;;12.60;32.60;;;;;;4944282;29;20492;-83
2022/05/03 07:34:28;;;;;;;12.20;6.77;;;12.60;29.80;;;;;;4949782;29;20457;-83
2022/05/03 07:36:57;;;;;;;8.13;5.67;;;12.70;30.20;;;;;;4948173;29;20520;-83
2022/05/03 07:39:23;;;;;;;10.63;6.90;;;12.80;31.80;;;;;;4948408;29;20992;-84
2022/05/03 07:41:52;;;;;;;9.67;6.07;;;12.90;32.10;;;;;;4949332;29;20817;-83
2022/05/03 07:44:18;;;;;;;14.73;6.70;;;13.00;29.10;;;;;;4951340;29;20524;-83
2022/05/03 07:46:45;;;;;;;9.20;6.03;;;12.90;29.10;;;;;;4950164;29;20457;-83
2022/05/03 07:49:12;;;;;;;8.00;5.70;;;12.90;27.80;;;;;;4949731;29;20460;-83
2022/05/03 07:51:41;;;;;;;12.23;7.10;;;12.80;26.60;;;;;;4951351;29;20449;-83
2022/05/03 07:54:09;;;;;;;16.63;7.43;;;12.90;26.10;;;;;;4950279;29;20614;-83
2022/05/03 07:56:36;;;;;;;10.40;5.20;;;13.10;26.40;;;;;;4949833;29;20460;-84
2022/05/03 07:59:06;;;;;;;11.47;7.20;;;13.30;23.90;;;;;;4948906;29;20457;-84
2022/05/03 08:01:33;;;;;;;11.50;6.10;;;13.50;24.80;;;;;;4950354;29;20470;-83
2022/05/03 08:04:00;;;;;;;16.20;6.70;;;13.50;23.10;;;;;;4950812;29;20449;-84
2022/05/03 08:06:28;;;;;;;10.43;6.00;;;13.90;25.70;;;;;;4949987;29;20461;-84
2022/05/03 08:08:56;;;;;;;12.60;7.57;;;14.10;20.40;;;;;;4948690;29;21066;-83
2022/05/03 08:11:24;;;;;;;11.37;6.50;;;14.20;19.10;;;;;;4949917;29;20465;-84
2022/05/03 08:13:52;;;;;;;12.50;7.47;;;14.20;20.40;;;;;;4950489;29;20526;-83
2022/05/03 08:16:20;;;;;;;10.07;5.97;;;14.40;19.30;;;;;;4940307;29;21046;-87
2022/05/03 08:18:48;;;;;;;10.40;6.93;;;14.60;18.20;;;;;;4936249;29;20879;-85
2022/05/03 08:21:15;;;;;;;14.63;5.77;;;14.70;16.80;;;;;;4948467;29;20440;-85
2022/05/03 08:23:41;;;;;;;8.00;4.23;;;14.80;16.00;;;;;;4958772;29;20456;-84
2022/05/03 08:26:08;;;;;;;8.07;4.70;;;15.20;16.30;;;;;;4958422;28;20443;-84
2022/05/03 08:28:36;;;;;;;10.07;6.23;;;15.20;14.10;;;;;;4957793;28;20452;-84
2022/05/03 08:31:03;;;;;;;10.10;5.00;;;15.00;15.90;;;;;;4954979;28;20486;-83
2022/05/03 08:33:30;;;;;;;9.73;5.37;;;15.30;16.00;;;;;;4949479;29;20468;-83
2022/05/03 08:35:57;;;;;;;9.90;6.10;;;15.10;12.30;;;;;;4949442;29;20952;-84
2022/05/03 08:44:03;;;;;;;10.93;5.50;;;15.50;9.00;;;;;;4950771;29;20462;-83
2022/05/03 08:46:31;;;;;;;11.20;5.50;;;15.80;11.50;;;;;;4950628;29;20470;-84
2022/05/03 08:49:02;;;;;;;9.13;4.83;;;15.70;9.10;;;;;;4949580;29;20455;-84
2022/05/03 08:51:31;;;;;;;10.17;5.70;;;15.80;9.50;;;;;;4949971;29;20464;-84
2022/05/03 08:53:59;;;;;;;12.10;6.60;;;16.10;10.00;;;;;;4950047;29;20484;-84
2022/05/03 08:56:26;;;;;;;8.33;4.93;;;16.00;7.80;;;;;;4950325;29;20457;-83
2022/05/03 08:58:55;;;;;;;13.90;5.40;;;16.30;8.30;;;;;;4949548;29;20461;-84
2022/05/03 09:01:24;;;;;;;9.57;5.33;;;16.50;8.80;;;;;;4950535;29;20821;-84
2022/05/03 09:03:51;;;;;;;7.83;4.97;;;16.50;8.20;;;;;;4949782;29;20477;-84
2022/05/03 09:06:18;;;;;;;16.83;6.90;;;16.40;6.60;;;;;;4949917;29;20984;-84
2022/05/03 09:08:49;;;;;;;9.03;5.47;;;16.60;6.10;;;;;;4949784;29;20911;-84
2022/05/03 09:11:17;;;;;;;12.63;5.60;;;17.10;7.30;;;;;;4949504;29;20514;-84
2022/05/03 09:13:45;;;;;;;9.30;4.47;;;17.30;5.00;;;;;;4949633;29;20479;-83
2022/05/03 09:16:13;;;;;;;7.10;4.20;;;17.30;1.10;;;;;;4949414;29;20521;-84
2022/05/03 09:18:42;;;;;;;9.87;4.63;;;17.60;2.80;;;;;;4948409;29;20986;-84
2022/05/03 09:24:08;;;;;;;8.27;4.87;;;18.30;1.90;;;;;;4952827;29;20444;-83
2022/05/03 09:27:29;;;;;;;14.30;6.13;;;18.80;3.70;;;;;;4955205;28;20478;-83
2022/05/03 09:30:04;;;;;;;11.80;6.03;;;18.30;1.00;;;;;;4945560;29;20540;-84
2022/05/03 09:32:41;;;;;;;11.67;5.53;;;18.50;3.70;;;;;;4951037;29;20461;-84
2022/05/03 09:35:31;;;;;;;13.80;5.70;;;18.50;1.00;;;;;;4951582;29;20455;-84
2022/05/03 09:37:58;;;;;;;9.40;5.73;;;18.80;2.20;;;;;;4952631;29;20471;-84
2022/05/03 09:40:25;;;;;;;16.60;5.77;;;19.20;2.10;;;;;;4951921;29;20473;-84
2022/05/03 09:42:53;;;;;;;10.87;4.97;;;19.60;1.00;;;;;;4952295;29;20456;-84
2022/05/03 09:45:23;;;;;;;16.90;6.20;;;19.20;1.00;;;;;;4953465;29;20516;-84
2022/05/03 09:47:52;;;;;;;13.43;5.67;;;19.20;1.00;;;;;;4952374;29;20448;-84
2022/05/03 09:50:36;;;;;;;14.40;5.93;;;19.80;1.00;;;;;;4952273;29;20578;-84
2022/05/03 09:53:08;;;;;;;12.73;6.10;;;19.30;1.00;;;;;;4951679;29;20461;-84
2022/05/03 09:55:37;;;;;;;9.90;6.10;;;19.70;1.00;;;;;;4952627;29;20464;-84
2022/05/03 09:58:06;;;;;;;11.70;5.47;;;20.10;1.00;;;;;;4954790;29;20522;-84
2022/05/03 10:00:34;;;;;;;8.97;5.30;;;19.80;1.00;;;;;;4952189;29;20572;-84
2022/05/03 10:03:02;;;;;;;9.00;4.63;;;19.30;1.00;;;;;;4952672;29;20524;-84
2022/05/03 10:05:30;;;;;;;9.83;4.40;;;19.10;1.00;;;;;;4952425;29;20457;-84
2022/05/03 10:07:57;;;;;;;9.90;4.70;;;19.30;1.00;;;;;;4952487;29;20456;-84
2022/05/03 10:10:26;;;;;;;16.10;4.53;;;19.40;1.00;;;;;;4952418;29;20979;-84
2022/05/03 10:12:54;;;;;;;9.10;5.30;;;19.70;1.00;;;;;;4952479;29;20460;-84
2022/05/03 10:20:55;;;;;;;9.30;4.40;;;20.30;1.00;;;;;;4949977;29;20475;-86
2022/05/03 10:23:23;;;;;;;12.63;5.53;;;20.00;1.00;;;;;;4956519;29;20448;-86
2022/05/03 10:25:51;;;;;;;9.20;5.83;;;19.50;1.00;;;;;;4957375;29;20485;-86
2022/05/03 10:28:18;;;;;;;6.97;4.30;;;19.50;1.00;;;;;;4958003;29;20469;-85
2022/05/03 10:31:07;;;;;;;8.80;4.53;;;20.10;1.00;;;;;;4957500;29;20485;-86
2022/05/03 10:33:38;;;;;;;12.60;6.27;;;20.20;1.00;;;;;;4957111;29;20481;-85
2022/05/03 10:36:45;;;;;;;10.30;6.03;;;20.40;1.00;;;;;;4950384;29;20460;-84
2022/05/03 10:39:23;;;;;;;6.63;4.43;;;20.10;1.00;;;;;;4948673;29;20462;-84
2022/05/03 10:41:55;;;;;;;9.97;5.40;;;20.20;1.00;;;;;;4948618;29;20464;-86
2022/05/03 10:44:41;;;;;;;9.53;5.50;;;20.50;1.00;;;;;;4943278;29;20463;-86
2022/05/03 10:47:08;;;;;;;20.23;6.00;;;20.70;1.00;;;;;;4951526;29;20491;-86
2022/05/03 10:49:36;;;;;;;13.90;5.70;;;20.60;1.00;;;;;;4951786;29;20544;-86
2022/05/03 10:52:17;;;;;;;11.20;6.63;;;20.70;1.00;;;;;;4954075;29;20455;-86
2022/05/03 10:55:07;;;;;;;11.53;5.87;;;20.40;1.00;;;;;;4953091;29;20561;-85
2022/05/03 10:58:13;;;;;;;8.43;5.50;;;20.90;1.00;;;;;;4956645;28;20452;-87
2022/05/03 11:01:01;;;;;;;11.30;5.13;;;22.10;1.00;;;;;;4939006;29;20486;-87
2022/05/03 11:03:28;;;;;;;9.60;6.63;;;21.80;1.00;;;;;;4937083;29;20923;-87
2022/05/03 11:06:28;;;;;;;13.83;6.50;;;21.60;1.00;;;;;;4936945;29;20472;-87
2022/05/03 11:09:09;;;;;;;8.63;4.33;;;22.30;1.00;;;;;;4942166;29;20457;-84
2022/05/03 11:12:13;;;;;;;10.67;4.77;;;21.20;1.00;;;;;;4948002;29;20480;-83
2022/05/03 11:14:55;;;;;;;8.73;5.30;;;20.80;1.00;;;;;;4952460;29;20476;-83
2022/05/03 11:17:23;;;;;;;11.67;6.60;;;20.60;1.00;;;;;;4948592;29;20459;-84
2022/05/03 11:19:53;;;;;;;10.27;5.90;;;21.50;1.00;;;;;;4945777;29;20579;-83
2022/05/03 11:22:21;;;;;;;7.80;4.83;;;21.60;1.00;;;;;;4943541;29;20201;-83
2022/05/03 11:24:51;;;;;;;10.00;6.27;;;22.10;1.00;;;;;;4943739;29;20892;-84
2022/05/03 11:27:19;;;;;;;12.43;6.27;;;21.40;1.00;;;;;;4945870;29;20953;-84
2022/05/03 11:29:47;;;;;;;10.10;5.13;;;21.20;1.00;;;;;;4943857;29;20480;-83
2022/05/03 11:32:15;;;;;;;12.07;5.80;;;21.60;1.00;;;;;;4945407;29;20470;-84
2022/05/03 11:34:43;;;;;;;14.80;5.23;;;21.50;1.00;;;;;;4943925;29;20491;-84
2022/05/03 11:37:10;;;;;;;11.57;6.20;;;21.20;1.00;;;;;;4944963;29;20479;-83
2022/05/03 11:39:37;;;;;;;8.90;5.63;;;21.60;1.00;;;;;;4944041;29;20480;-84
2022/05/03 11:42:09;;;;;;;10.07;5.77;;;20.80;1.00;;;;;;4945892;29;21164;-83
2022/05/03 11:44:36;;;;;;;9.40;5.40;;;21.00;1.00;;;;;;4944129;29;20456;-84
2022/05/03 11:47:04;;;;;;;11.53;6.00;;;21.10;1.00;;;;;;4944324;29;20464;-84
2022/05/03 11:49:32;;;;;;;8.10;6.23;;;21.40;1.00;;;;;;4943265;29;20497;-83
2022/05/03 11:57:35;;;;;;;8.30;4.87;;;21.40;1.00;;;;;;4944779;29;20443;-83
2022/05/03 12:00:06;;;;;;;8.03;5.30;;;22.20;1.00;;;;;;4942111;29;20488;-83
2022/05/03 12:02:43;;;;;;;12.63;7.10;;;22.00;1.00;;;;;;4946326;29;20456;-84
2022/05/03 12:05:17;;;;;;;10.80;6.13;;;22.00;1.00;;;;;;4944192;29;20452;-84
2022/05/03 12:07:47;;;;;;;11.50;5.80;;;22.10;1.00;;;;;;4944399;29;20524;-84
2022/05/03 12:10:22;;;;;;;10.33;6.20;;;22.30;1.00;;;;;;4942741;29;20487;-84
2022/05/03 12:13:06;;;;;;;10.53;6.90;;;22.50;1.00;;;;;;4944413;29;20456;-84
2022/05/03 12:15:35;;;;;;;7.60;4.93;;;21.50;1.00;;;;;;4944174;29;20539;-84
2022/05/03 12:18:11;;;;;;;9.00;5.97;;;21.90;1.00;;;;;;4943217;29;20559;-83
2022/05/03 12:20:43;;;;;;;9.67;6.50;;;22.10;1.00;;;;;;4942982;29;20476;-84
2022/05/03 12:23:13;;;;;;;9.87;5.40;;;22.90;1.00;;;;;;4943798;29;20467;-83
2022/05/03 12:25:42;;;;;;;12.10;6.50;;;22.50;1.00;;;;;;4943530;29;20523;-84
2022/05/03 12:28:10;;;;;;;9.90;5.70;;;22.60;1.00;;;;;;4942401;29;20485;-83
2022/05/03 12:30:37;;;;;;;10.07;6.50;;;22.80;1.00;;;;;;4943544;29;20503;-84
2022/05/03 12:33:05;;;;;;;12.80;7.00;;;23.20;1.00;;;;;;4944112;29;20460;-84
2022/05/03 12:35:33;;;;;;;15.20;6.20;;;22.70;1.00;;;;;;4941898;29;20489;-84
2022/05/03 12:38:12;;;;;;;11.57;7.00;;;23.00;1.00;;;;;;4942031;29;20461;-87
2022/05/03 12:40:47;;;;;;;7.80;4.83;;;22.80;1.00;;;;;;4942411;29;20221;-87
2022/05/03 12:43:17;;;;;;;10.80;6.50;;;22.30;1.00;;;;;;4944590;29;20973;-84
2022/05/03 12:45:59;;;;;;;8.50;4.37;;;22.80;1.00;;;;;;4943361;29;20491;-85
2022/05/03 12:48:26;;;;;;;8.27;5.27;;;22.00;1.00;;;;;;4938738;29;20953;-86
2022/05/03 12:50:53;;;;;;;8.83;5.37;;;23.00;1.00;;;;;;4934623;29;20480;-85
2022/05/03 12:53:25;;;;;;;9.10;5.10;;;24.20;1.00;;;;;;4940247;29;20464;-84
2022/05/03 12:55:52;;;;;;;9.90;5.87;;;23.70;1.00;;;;;;4940032;29;20527;-84
2022/05/03 12:58:21;;;;;;;13.80;5.80;;;23.20;1.00;;;;;;4945005;29;20449;-85
2022/05/03 13:00:48;;;;;;;9.27;5.30;;;22.90;1.00;;;;;;4947476;29;20484;-85
2022/05/03 13:03:15;;;;;;;9.63;5.40;;;23.30;1.00;;;;;;4946534;29;20484;-84
2022/05/03 13:05:42;;;;;;;9.23;5.30;;;23.20;1.00;;;;;;4944498;29;20984;-84
2022/05/03 13:08:09;;;;;;;11.93;6.35;;;23.60;1.00;;;;;;4942053;29;20536;-86
2022/05/03 13:10:35;;;;;;;10.03;6.07;;;23.20;1.00;;;;;;4944452;29;20220;-84
2022/05/03 13:13:03;;;;;;;11.70;5.80;;;22.70;1.00;;;;;;4943263;29;20453;-83
2022/05/03 13:15:32;;;;;;;11.80;4.70;;;22.60;1.00;;;;;;4941931;29;20480;-85
2022/05/03 13:17:59;;;;;;;20.37;8.83;;;22.40;1.00;;;;;;4941310;29;20464;-85
2022/05/03 13:20:27;;;;;;;9.90;5.80;;;19.20;99.90;;;;;;4941176;29;20472;-86
2022/05/03 13:22:53;;;;;;;13.27;6.40;;;15.10;99.90;;;;;;4940155;29;20468;-86
2022/05/03 13:25:21;;;;;;;14.10;6.30;;;14.50;99.90;;;;;;4940957;29;20459;-85
2022/05/03 13:27:48;;;;;;;17.23;8.53;;;14.10;99.90;;;;;;4942453;29;20462;-86
2022/05/03 13:30:16;;;;;;;10.13;6.47;;;14.80;99.90;;;;;;4941099;29;20479;-86